Terminal Aerodrome Forecast
Issued by NWS

Home | Current Version | Previous Version | Graphics & Text | Print | Product List | Glossary On
Versions: 1 2 3 4 5 6 7 8 9 10 11 12 13 14 15 16 17 18 19 20
038
FTUS43 KEAX 271739
TAFSTJ
TAF
KSTJ 271739Z 2718/2818 22007KT P6SM SCT120
     FM272100 17005KT P6SM VCTS BKN035CB
      TEMPO 2722/2802 4SM -TSRA
     FM280600 VRB05KT P6SM BKN100=

USA.gov is the U.S. government's official web portal to all federal, state and local government web resources and services.